Terminal Aerodrome Forecast
Issued by NWS Atlanta, GA

Home | Current Version | Previous Version | Text Only | Print | Product List | Glossary On
Versions: 1 2 3 4 5 6 7 8 9 10 11 12 13 14 15 16 17 18 19 20 21 22 23 24 25 26 27 28 29 30 31 32 33
000
FTAK31 PAJN 301138
TAFAHN
TAF
PAHN 301138Z 3012/3112 VRB05KT P6SM VCSH SCT025 BKN035 OVC050
      TEMPO 3012/3016 BKN025 OVC035
     FM301800 VRB06KT P6SM -SHRA SCT030 OVC050
     FM310000 30005KT P6SM -SHRA SCT040 OVC070
     FM310600 33006KT P6SM -SHRA SCT025 OVC050
      AMD LTD TO CLD VIS AND WIND=

USA.gov is the U.S. government's official web portal to all federal, state and local government web resources and services.